createdAt,value
2017-10-11T00:01:27.126Z,10.47
2017-10-11T00:03:54.672Z,10.10
2017-10-11T00:06:22.141Z,9.87
2017-10-11T00:08:49.609Z,10.40
2017-10-11T00:11:17.143Z,10.83
2017-10-11T00:13:44.596Z,10.43
2017-10-11T00:16:12.062Z,9.73
2017-10-11T00:18:39.611Z,9.97
2017-10-11T00:21:07.178Z,9.50
2017-10-11T00:23:34.635Z,8.60
2017-10-11T00:26:02.091Z,10.30
2017-10-11T00:28:29.554Z,10.90
2017-10-11T00:30:57.010Z,10.97
2017-10-11T00:33:24.473Z,10.90
2017-10-11T00:35:52.007Z,10.60
2017-10-11T00:38:19.516Z,11.10
2017-10-11T00:40:46.966Z,11.57
2017-10-11T00:43:14.438Z,11.83
2017-10-11T00:45:41.892Z,10.50
2017-10-11T00:48:09.408Z,9.83
2017-10-11T00:50:36.870Z,8.53
2017-10-11T00:53:04.418Z,10.03
2017-10-11T00:55:31.886Z,10.77
2017-10-11T00:57:59.475Z,10.77
2017-10-11T01:00:26.958Z,10.13
2017-10-11T01:02:54.468Z,11.67
2017-10-11T01:05:21.926Z,13.60
2017-10-11T01:07:49.389Z,11.17
2017-10-11T01:10:16.933Z,11.70
2017-10-11T01:12:44.484Z,13.40
2017-10-11T01:15:11.991Z,12.57
2017-10-11T01:17:39.513Z,12.33
2017-10-11T01:20:07.057Z,13.77
2017-10-11T01:22:34.512Z,12.47
2017-10-11T01:25:02.043Z,12.53
2017-10-11T01:27:29.508Z,12.30
2017-10-11T01:29:57.040Z,13.40
2017-10-11T01:32:24.504Z,10.90
2017-10-11T01:34:52.010Z,12.13
2017-10-11T01:37:19.569Z,11.00
2017-10-11T01:39:47.059Z,11.50
2017-10-11T01:42:14.511Z,11.60
2017-10-11T01:44:41.993Z,12.00
2017-10-11T01:47:09.480Z,11.87
2017-10-11T01:49:36.950Z,11.20
2017-10-11T01:52:04.455Z,11.50
2017-10-11T01:54:31.941Z,10.10
2017-10-11T01:56:59.435Z,11.07
2017-10-11T01:59:27.002Z,11.07
2017-10-11T02:01:54.510Z,11.10
2017-10-11T02:04:21.960Z,9.90
2017-10-11T02:06:49.443Z,11.33
2017-10-11T02:09:16.899Z,10.80
2017-10-11T02:11:44.380Z,10.60
2017-10-11T02:14:11.850Z,11.17
2017-10-11T02:16:39.388Z,10.83
2017-10-11T02:19:06.862Z,10.93
2017-10-11T02:21:34.316Z,10.10
2017-10-11T02:24:01.858Z,11.40
2017-10-11T02:26:29.325Z,10.10
2017-10-11T02:28:56.879Z,11.23
2017-10-11T02:31:24.378Z,12.03
2017-10-11T02:33:51.866Z,10.77
2017-10-11T02:36:19.344Z,12.10
2017-10-11T02:38:46.859Z,11.77
2017-10-11T02:41:14.326Z,10.60
2017-10-11T02:43:41.913Z,11.07
2017-10-11T02:46:09.388Z,10.60
2017-10-11T02:48:36.895Z,11.30
2017-10-11T02:51:04.361Z,10.97
2017-10-11T02:53:31.849Z,11.30
2017-10-11T02:55:59.410Z,10.80
2017-10-11T02:58:26.919Z,10.70
2017-10-11T03:00:54.441Z,10.17
2017-10-11T03:03:21.917Z,10.90
2017-10-11T03:05:49.396Z,12.27
2017-10-11T03:08:16.861Z,10.50
2017-10-11T03:10:44.371Z,11.47
2017-10-11T03:13:11.827Z,10.60
2017-10-11T03:15:39.317Z,10.10
2017-10-11T03:18:06.834Z,10.90
2017-10-11T03:20:34.321Z,10.47
2017-10-11T03:23:01.779Z,11.00
2017-10-11T03:25:29.268Z,9.90
2017-10-11T03:27:57.570Z,10.20
2017-10-11T03:30:25.126Z,10.40
2017-10-11T03:32:52.600Z,10.93
2017-10-11T03:35:20.086Z,8.60
2017-10-11T03:37:47.549Z,9.13
2017-10-11T03:40:15.046Z,8.97
2017-10-11T03:42:42.514Z,9.17
2017-10-11T03:45:10.068Z,10.50
2017-10-11T03:47:37.559Z,9.20
2017-10-11T03:50:05.020Z,8.80
2017-10-11T03:52:32.505Z,7.57
2017-10-11T03:54:59.986Z,6.97
2017-10-11T03:57:27.469Z,8.70
2017-10-11T03:59:54.999Z,7.90
2017-10-11T04:02:22.565Z,8.10
2017-10-11T04:04:50.044Z,7.43
2017-10-11T04:07:17.581Z,7.47
2017-10-11T04:09:45.045Z,8.20
2017-10-11T04:12:12.523Z,7.60
2017-10-11T04:14:39.998Z,7.20
2017-10-11T04:17:07.481Z,7.60
2017-10-11T04:19:34.970Z,8.77
2017-10-11T04:22:02.443Z,7.13
2017-10-11T04:24:29.909Z,6.50
2017-10-11T04:26:57.389Z,7.13
2017-10-11T04:29:26.159Z,8.03
2017-10-11T04:31:53.653Z,8.80
2017-10-11T04:34:21.117Z,8.07
2017-10-11T04:36:48.563Z,7.67
2017-10-11T04:39:16.051Z,7.63
2017-10-11T04:41:43.536Z,7.17
2017-10-11T04:44:11.021Z,7.93
2017-10-11T04:46:38.478Z,7.83
2017-10-11T04:49:05.983Z,7.83
2017-10-11T04:51:33.449Z,7.53
2017-10-11T04:54:00.923Z,6.53
2017-10-11T04:56:28.400Z,8.77
2017-10-11T04:58:55.972Z,8.40
2017-10-11T05:01:23.441Z,9.60
2017-10-11T05:03:51.069Z,8.43
2017-10-11T05:06:18.534Z,9.47
2017-10-11T05:08:46.014Z,8.90
2017-10-11T05:11:13.543Z,9.40
2017-10-11T05:13:41.044Z,8.90
2017-10-11T05:16:08.510Z,9.60
2017-10-11T05:18:35.996Z,8.10
2017-10-11T05:21:03.546Z,9.13
2017-10-11T05:23:31.089Z,9.20
2017-10-11T05:25:58.577Z,8.47
2017-10-11T05:28:26.056Z,10.20
2017-10-11T05:30:53.547Z,10.80
2017-10-11T05:33:21.116Z,10.57
2017-10-11T05:35:48.643Z,11.40
2017-10-11T05:38:16.137Z,10.40
2017-10-11T05:40:43.616Z,11.90
2017-10-11T05:43:11.122Z,11.80
2017-10-11T05:45:38.630Z,11.77
2017-10-11T05:48:06.151Z,13.00
2017-10-11T05:50:33.663Z,13.10
2017-10-11T05:53:01.121Z,14.60
2017-10-11T05:55:28.642Z,12.97
2017-10-11T05:57:56.140Z,14.57
2017-10-11T06:00:23.658Z,12.97
2017-10-11T06:02:51.152Z,13.10
2017-10-11T06:05:18.681Z,11.73
2017-10-11T06:07:46.167Z,11.70
2017-10-11T06:10:13.637Z,12.23
2017-10-11T06:12:41.132Z,12.30
2017-10-11T06:15:08.689Z,11.47
2017-10-11T06:17:36.159Z,13.13
2017-10-11T06:20:03.634Z,12.27
2017-10-11T06:22:31.134Z,13.57
2017-10-11T06:24:59.146Z,15.50
2017-10-11T06:27:26.648Z,14.37
2017-10-11T06:29:54.121Z,14.23
2017-10-11T06:32:21.602Z,14.17
2017-10-11T06:34:49.066Z,14.57
2017-10-11T06:37:16.567Z,15.80
2017-10-11T06:39:44.056Z,16.30
2017-10-11T06:42:11.538Z,15.10
2017-10-11T06:44:39.019Z,16.70
2017-10-11T06:47:06.483Z,15.53
2017-10-11T06:49:33.967Z,15.50
2017-10-11T06:52:01.469Z,14.67
2017-10-11T06:54:28.964Z,13.60
2017-10-11T06:56:56.445Z,14.77
2017-10-11T06:59:23.943Z,13.20
2017-10-11T07:01:51.404Z,13.57
2017-10-11T07:04:18.966Z,15.97
2017-10-11T07:06:46.465Z,13.23
2017-10-11T07:09:13.956Z,13.87
2017-10-11T07:11:41.421Z,11.00
2017-10-11T07:14:08.909Z,14.10
2017-10-11T07:16:36.368Z,13.27
2017-10-11T07:19:03.906Z,13.17
2017-10-11T07:21:31.382Z,12.33
2017-10-11T07:23:58.878Z,12.83
2017-10-11T07:26:26.365Z,13.20
2017-10-11T07:28:53.880Z,14.53
2017-10-11T07:31:21.356Z,14.97
2017-10-11T07:33:48.946Z,22.30
2017-10-11T07:36:16.429Z,16.10
2017-10-11T07:38:43.926Z,12.53
2017-10-11T07:41:11.418Z,11.93
2017-10-11T07:43:38.987Z,11.90
2017-10-11T07:46:06.474Z,9.23
2017-10-11T07:48:33.945Z,9.50
2017-10-11T07:51:01.458Z,9.53
2017-10-11T07:53:28.945Z,10.77
2017-10-11T07:55:56.435Z,9.37
2017-10-11T07:58:23.889Z,7.43
2017-10-11T08:00:51.392Z,9.50
2017-10-11T08:03:18.849Z,9.00
2017-10-11T08:05:46.337Z,7.80
2017-10-11T08:08:13.836Z,7.43
2017-10-11T08:10:41.328Z,7.87
2017-10-11T08:13:08.779Z,7.23
2017-10-11T08:15:36.316Z,7.13
2017-10-11T08:18:03.786Z,7.23
2017-10-11T08:20:31.261Z,6.80
2017-10-11T08:22:58.836Z,7.90
2017-10-11T08:25:26.400Z,12.03
2017-10-11T08:27:53.905Z,7.00
2017-10-11T08:30:21.409Z,6.33
2017-10-11T08:32:48.868Z,5.37
2017-10-11T08:35:16.355Z,4.90
2017-10-11T08:37:43.875Z,4.83
2017-10-11T08:40:11.342Z,3.80
2017-10-11T08:42:38.829Z,5.60
2017-10-11T08:45:06.294Z,4.30
2017-10-11T08:47:33.790Z,4.40
2017-10-11T08:50:01.239Z,4.23
2017-10-11T08:52:28.785Z,3.00
2017-10-11T08:54:56.235Z,3.20
2017-10-11T08:57:23.804Z,3.27
2017-10-11T08:59:51.264Z,2.47
2017-10-11T09:02:18.813Z,2.63
2017-10-11T09:04:46.274Z,2.50
2017-10-11T09:07:13.760Z,3.00
2017-10-11T09:09:41.294Z,2.60
2017-10-11T09:12:08.811Z,2.53
2017-10-11T09:14:36.277Z,2.33
2017-10-11T09:17:03.741Z,1.57
2017-10-11T09:19:31.205Z,1.40
2017-10-11T09:21:58.770Z,1.40
2017-10-11T09:24:26.246Z,1.30
2017-10-11T09:26:53.737Z,1.67
2017-10-11T09:29:21.285Z,1.13
2017-10-11T09:31:48.752Z,1.33
2017-10-11T09:34:16.253Z,1.80
2017-10-11T09:36:43.703Z,1.23
2017-10-11T09:39:11.176Z,1.70
2017-10-11T09:41:38.626Z,1.30
2017-10-11T09:44:06.137Z,1.00
2017-10-11T09:46:33.598Z,1.00
2017-10-11T09:49:01.099Z,0.90
2017-10-11T09:51:28.571Z,1.30
2017-10-11T09:53:56.109Z,1.60
2017-10-11T09:56:23.554Z,2.13
2017-10-11T09:58:51.038Z,2.20
2017-10-11T10:01:18.584Z,2.80
2017-10-11T10:03:46.142Z,2.57
2017-10-11T10:06:13.621Z,2.03
2017-10-11T10:08:41.098Z,3.17
2017-10-11T10:11:08.601Z,3.57
2017-10-11T10:13:36.076Z,3.80
2017-10-11T10:16:03.527Z,3.03
2017-10-11T10:18:30.996Z,3.60
2017-10-11T10:20:58.455Z,3.13
2017-10-11T10:23:25.953Z,3.07
2017-10-11T10:25:53.414Z,2.70
2017-10-11T10:28:20.888Z,1.57
2017-10-11T10:30:48.355Z,1.50
2017-10-11T10:33:15.843Z,1.73
2017-10-11T10:35:43.386Z,1.60
2017-10-11T10:38:10.869Z,1.50
2017-10-11T10:40:38.344Z,1.60
2017-10-11T10:43:05.825Z,1.67
2017-10-11T10:45:33.285Z,1.30
2017-10-11T10:48:00.764Z,1.53
2017-10-11T10:50:28.249Z,1.20
2017-10-11T10:52:55.709Z,1.27
2017-10-11T10:55:23.199Z,1.23
2017-10-11T10:57:50.701Z,1.10
2017-10-11T11:00:18.253Z,1.57
2017-10-11T11:02:45.713Z,1.50
2017-10-11T11:05:13.272Z,1.30
2017-10-11T11:07:40.741Z,2.40
2017-10-11T11:10:08.254Z,1.40
2017-10-11T11:12:35.754Z,1.20
2017-10-11T11:15:03.295Z,1.20
2017-10-11T11:17:30.762Z,1.63
2017-10-11T11:19:58.316Z,1.03
2017-10-11T11:22:25.801Z,1.10
2017-10-11T11:24:53.331Z,1.40
2017-10-11T11:27:20.883Z,1.60
2017-10-11T11:29:48.404Z,1.10
2017-10-11T11:32:15.944Z,1.33
2017-10-11T11:34:43.469Z,1.50
2017-10-11T11:37:11.036Z,1.70
2017-10-11T11:39:38.529Z,1.40
2017-10-11T11:42:05.995Z,1.77
2017-10-11T11:44:33.486Z,1.20
2017-10-11T11:47:00.967Z,1.60
2017-10-11T11:49:28.448Z,1.40
2017-10-11T11:51:55.899Z,1.67
2017-10-11T11:54:23.372Z,1.50
2017-10-11T11:56:50.837Z,1.47
2017-10-11T11:59:18.335Z,1.20
2017-10-11T12:01:45.805Z,1.53
2017-10-11T12:04:13.334Z,1.37
2017-10-11T12:06:40.801Z,1.20
2017-10-11T12:09:08.365Z,1.20
2017-10-11T12:11:35.845Z,1.83
2017-10-11T12:14:03.301Z,1.87
2017-10-11T12:16:30.843Z,1.53
2017-10-11T12:18:58.389Z,1.20
2017-10-11T12:21:25.889Z,1.53
2017-10-11T12:23:53.377Z,1.60
2017-10-11T12:26:20.865Z,1.43
2017-10-11T12:28:48.318Z,1.30
2017-10-11T12:31:15.889Z,1.47
2017-10-11T12:33:43.441Z,1.00
2017-10-11T12:36:11.001Z,1.23
2017-10-11T12:38:38.472Z,1.37
2017-10-11T12:41:05.949Z,1.23
2017-10-11T12:43:33.434Z,1.77
2017-10-11T12:46:00.915Z,2.30
2017-10-11T12:48:28.367Z,1.50
2017-10-11T12:50:55.842Z,1.30
2017-10-11T12:53:23.299Z,1.20
2017-10-11T12:55:50.847Z,1.13
2017-10-11T12:58:18.309Z,1.27
2017-10-11T13:00:45.883Z,0.93
2017-10-11T13:03:13.346Z,1.30
2017-10-11T13:05:40.821Z,1.20
2017-10-11T13:08:08.393Z,1.50
2017-10-11T13:10:35.886Z,1.20
2017-10-11T13:13:03.344Z,1.47
2017-10-11T13:15:30.918Z,1.43
2017-10-11T13:17:58.415Z,1.40
2017-10-11T13:20:25.878Z,1.17
2017-10-11T13:22:53.379Z,1.93
2017-10-11T13:25:20.855Z,1.60
2017-10-11T13:27:48.335Z,1.20
2017-10-11T13:30:15.861Z,1.33
2017-10-11T13:32:43.368Z,1.53
2017-10-11T13:35:10.850Z,1.40
2017-10-11T13:37:38.329Z,1.00
2017-10-11T13:40:05.894Z,1.07
2017-10-11T13:42:33.382Z,1.70
2017-10-11T13:45:00.902Z,1.10
2017-10-11T13:47:28.489Z,1.40
2017-10-11T13:49:56.023Z,1.10
2017-10-11T13:52:23.505Z,2.00
2017-10-11T13:54:50.975Z,0.90
2017-10-11T13:57:18.461Z,1.43
2017-10-11T13:59:45.943Z,1.53
2017-10-11T14:02:13.509Z,1.80
2017-10-11T14:04:40.964Z,1.70
2017-10-11T14:07:08.458Z,1.67
2017-10-11T14:09:37.838Z,1.50
2017-10-11T14:12:05.394Z,1.20
2017-10-11T14:14:32.853Z,1.27
2017-10-11T14:17:00.396Z,1.20
2017-10-11T14:19:27.861Z,1.50
2017-10-11T14:21:55.418Z,1.00
2017-10-11T14:24:22.877Z,1.40
2017-10-11T14:26:50.364Z,1.70
2017-10-11T14:29:17.827Z,1.63
2017-10-11T14:31:45.313Z,1.30
2017-10-11T14:34:12.764Z,1.50
2017-10-11T14:36:40.247Z,1.20
2017-10-11T14:39:07.721Z,1.50
2017-10-11T14:41:35.185Z,1.17
2017-10-11T14:44:02.675Z,1.50
2017-10-11T14:46:30.153Z,1.73
2017-10-11T14:48:57.654Z,1.50
2017-10-11T14:51:25.124Z,1.60
2017-10-11T14:53:52.610Z,1.67
2017-10-11T14:56:20.122Z,1.80
2017-10-11T14:58:47.596Z,2.20
2017-10-11T15:01:15.125Z,2.03
2017-10-11T15:03:45.773Z,1.67
2017-10-11T15:06:13.234Z,1.70
2017-10-11T15:08:40.712Z,1.40
2017-10-11T15:11:08.214Z,1.17
2017-10-11T15:13:35.700Z,1.30
2017-10-11T15:16:03.255Z,2.00
2017-10-11T15:18:30.768Z,1.50
2017-10-11T15:20:58.285Z,1.53
2017-10-11T15:23:25.838Z,1.73
2017-10-11T15:25:53.370Z,2.20
2017-10-11T15:28:20.854Z,1.60
2017-10-11T15:30:48.322Z,1.60
2017-10-11T15:33:15.847Z,2.63
2017-10-11T15:35:43.318Z,47.23
2017-10-11T15:38:10.787Z,2.43
2017-10-11T15:40:38.258Z,1.40
2017-10-11T15:43:05.805Z,1.50
2017-10-11T15:45:33.265Z,1.87
2017-10-11T15:48:00.789Z,2.00
2017-10-11T15:50:28.265Z,2.00
2017-10-11T15:52:55.813Z,2.40
2017-10-11T15:55:23.382Z,1.80
2017-10-11T15:57:50.929Z,1.80
2017-10-11T16:00:18.396Z,2.67
2017-10-11T16:02:45.949Z,1.70
2017-10-11T16:05:13.442Z,2.50
2017-10-11T16:07:40.926Z,1.87
2017-10-11T16:10:08.398Z,1.80
2017-10-11T16:12:35.973Z,2.10
2017-10-11T16:15:03.437Z,1.80
2017-10-11T16:17:30.941Z,2.60
2017-10-11T16:19:58.453Z,1.97
2017-10-11T16:22:26.014Z,1.50
2017-10-11T16:24:53.511Z,1.63
2017-10-11T16:27:20.971Z,1.80
2017-10-11T16:29:48.454Z,1.60
2017-10-11T16:32:15.932Z,1.53
2017-10-11T16:34:43.399Z,1.77
2017-10-11T16:37:10.951Z,1.50
2017-10-11T16:39:38.535Z,2.10
2017-10-11T16:42:06.075Z,1.57
2017-10-11T16:44:33.633Z,2.07
2017-10-11T16:47:01.092Z,1.53
2017-10-11T16:49:28.569Z,1.47
2017-10-11T16:51:56.025Z,4.20
2017-10-11T16:54:23.517Z,3.60
2017-10-11T16:56:50.970Z,2.73
2017-10-11T16:59:18.453Z,3.47
2017-10-11T17:01:45.941Z,3.43
2017-10-11T17:04:13.418Z,2.80
2017-10-11T17:06:40.903Z,2.63
2017-10-11T17:09:08.393Z,2.57
2017-10-11T17:11:35.873Z,3.03
2017-10-11T17:14:03.365Z,2.20
2017-10-11T17:16:30.819Z,8.80
2017-10-11T17:18:58.320Z,13.77
2017-10-11T17:21:25.808Z,8.07
2017-10-11T17:23:53.387Z,4.17
2017-10-11T17:26:20.928Z,3.70
2017-10-11T17:28:48.409Z,3.70
2017-10-11T17:31:15.869Z,2.80
2017-10-11T17:33:43.365Z,2.57
2017-10-11T17:36:10.829Z,2.80
2017-10-11T17:38:38.371Z,2.77
2017-10-11T17:41:05.869Z,3.43
2017-10-11T17:43:33.325Z,3.60
2017-10-11T17:46:00.851Z,4.27
2017-10-11T17:48:28.328Z,4.27
2017-10-11T17:50:55.863Z,3.30
2017-10-11T17:53:23.393Z,2.97
2017-10-11T17:55:50.878Z,2.47
2017-10-11T17:58:18.332Z,2.43
2017-10-11T18:00:45.805Z,2.63
2017-10-11T18:03:13.269Z,2.80
2017-10-11T18:05:40.746Z,1.70
2017-10-11T18:08:08.205Z,1.80
2017-10-11T18:10:35.681Z,1.73
2017-10-11T18:13:03.149Z,2.50
2017-10-11T18:15:30.643Z,1.60
2017-10-11T18:17:58.107Z,1.70
2017-10-11T18:20:25.651Z,2.27
2017-10-11T18:22:53.110Z,2.00
2017-10-11T18:25:20.682Z,3.70
2017-10-11T18:27:48.166Z,3.30
2017-10-11T18:30:15.649Z,2.77
2017-10-11T18:32:43.106Z,2.30
2017-10-11T18:35:10.604Z,3.20
2017-10-11T18:37:38.066Z,3.17
2017-10-11T18:40:05.558Z,2.10
2017-10-11T18:42:33.044Z,3.60
2017-10-11T18:45:00.584Z,2.50
2017-10-11T18:47:28.045Z,2.30
2017-10-11T18:49:55.558Z,1.70
2017-10-11T18:52:23.021Z,1.60
2017-10-11T18:54:50.487Z,1.40
2017-10-11T18:57:17.941Z,1.73
2017-10-11T18:59:45.397Z,1.53
2017-10-11T19:02:12.882Z,1.43
2017-10-11T19:04:40.432Z,1.30
2017-10-11T19:07:07.937Z,2.03
2017-10-11T19:09:35.380Z,1.50
2017-10-11T19:12:02.853Z,2.77
2017-10-11T19:14:30.429Z,2.40
2017-10-11T19:16:57.940Z,1.80
2017-10-11T19:19:25.401Z,2.00
2017-10-11T19:21:52.897Z,2.07
2017-10-11T19:24:20.447Z,2.63
2017-10-11T19:26:47.937Z,2.73
2017-10-11T19:29:15.387Z,2.90
2017-10-11T19:31:42.898Z,3.33
2017-10-11T19:34:10.354Z,2.70
2017-10-11T19:36:37.838Z,3.17
2017-10-11T19:39:05.333Z,2.97
2017-10-11T19:41:32.810Z,2.93
2017-10-11T19:44:00.317Z,2.70
2017-10-11T19:46:27.807Z,2.13
2017-10-11T19:48:55.274Z,1.93
2017-10-11T19:51:22.763Z,2.40
2017-10-11T19:53:50.237Z,2.13
2017-10-11T19:56:17.785Z,1.60
2017-10-11T19:58:45.270Z,3.00
2017-10-11T20:01:12.733Z,1.97
2017-10-11T20:03:40.242Z,1.77
2017-10-11T20:06:07.697Z,1.90
2017-10-11T20:08:35.194Z,1.87
2017-10-11T20:11:02.648Z,1.83
2017-10-11T20:13:30.138Z,2.10
2017-10-11T20:15:57.601Z,2.40
2017-10-11T20:18:25.055Z,1.80
2017-10-11T20:20:52.542Z,2.07
2017-10-11T20:23:20.045Z,2.90
2017-10-11T20:25:47.535Z,2.53
2017-10-11T20:28:14.993Z,1.93
2017-10-11T20:30:42.516Z,2.07
2017-10-11T20:33:09.997Z,2.27
2017-10-11T20:35:37.485Z,1.73
2017-10-11T20:38:04.973Z,2.23
2017-10-11T20:40:32.519Z,2.83
2017-10-11T20:42:59.963Z,2.53
2017-10-11T20:45:27.486Z,1.73
2017-10-11T20:47:54.982Z,2.70
2017-10-11T20:50:22.470Z,2.23
2017-10-11T20:52:49.944Z,3.07
2017-10-11T20:55:17.409Z,2.97
2017-10-11T20:57:44.888Z,3.73
2017-10-11T21:00:12.374Z,2.93
2017-10-11T21:02:39.849Z,2.43
2017-10-11T21:05:07.400Z,2.80
2017-10-11T21:07:34.877Z,3.70
2017-10-11T21:10:02.334Z,3.70
2017-10-11T21:12:29.812Z,4.00
2017-10-11T21:14:57.536Z,6.33
2017-10-11T21:17:25.087Z,5.93
2017-10-11T21:19:52.562Z,7.90
2017-10-11T21:22:20.058Z,5.60
2017-10-11T21:24:47.543Z,5.30
2017-10-11T21:27:15.108Z,3.80
2017-10-11T21:29:42.573Z,3.07
2017-10-11T21:32:10.134Z,3.37
2017-10-11T21:34:37.681Z,2.43
2017-10-11T21:37:05.244Z,3.00
2017-10-11T21:39:32.716Z,2.00
2017-10-11T21:42:00.174Z,2.90
2017-10-11T21:44:27.666Z,3.20
2017-10-11T21:46:55.111Z,2.93
2017-10-11T21:49:22.633Z,3.10
2017-10-11T21:51:50.237Z,2.97
2017-10-11T21:54:17.741Z,2.40
2017-10-11T21:56:45.183Z,2.93
2017-10-11T21:59:12.662Z,3.60
2017-10-11T22:01:40.162Z,2.53
2017-10-11T22:04:07.631Z,3.20
2017-10-11T22:06:35.093Z,2.50
2017-10-11T22:09:02.568Z,2.47
2017-10-11T22:11:30.053Z,3.00
2017-10-11T22:13:57.598Z,2.80
2017-10-11T22:16:25.063Z,2.97
2017-10-11T22:18:52.524Z,2.43
2017-10-11T22:21:19.991Z,2.50
2017-10-11T22:23:47.460Z,2.50
2017-10-11T22:26:14.943Z,2.20
2017-10-11T22:28:42.445Z,3.23
2017-10-11T22:31:09.917Z,2.77
2017-10-11T22:33:37.461Z,2.23
2017-10-11T22:36:04.982Z,2.27
2017-10-11T22:38:32.500Z,2.27
2017-10-11T22:40:59.981Z,2.30
2017-10-11T22:43:27.454Z,2.50
2017-10-11T22:45:54.917Z,3.23
2017-10-11T22:48:22.405Z,2.60
2017-10-11T22:50:49.855Z,2.50
2017-10-11T22:53:17.433Z,3.00
2017-10-11T22:55:44.972Z,3.10
2017-10-11T22:58:12.469Z,3.03
2017-10-11T23:00:39.915Z,3.23
2017-10-11T23:03:07.389Z,4.10
2017-10-11T23:05:34.865Z,4.30
2017-10-11T23:08:02.370Z,5.80
2017-10-11T23:10:29.823Z,5.27
2017-10-11T23:12:57.282Z,5.90
2017-10-11T23:15:24.831Z,6.70
2017-10-11T23:17:52.298Z,5.80
2017-10-11T23:20:19.812Z,5.40
2017-10-11T23:22:47.278Z,5.27
2017-10-11T23:25:14.753Z,5.67
2017-10-11T23:27:42.195Z,5.27
2017-10-11T23:30:09.658Z,5.70
2017-10-11T23:32:37.133Z,4.57
2017-10-11T23:35:04.621Z,4.00
2017-10-11T23:37:32.158Z,4.53
2017-10-11T23:39:59.700Z,5.03
2017-10-11T23:42:27.161Z,5.73
2017-10-11T23:44:54.622Z,4.93
2017-10-11T23:47:22.184Z,5.20
2017-10-11T23:49:49.647Z,4.37
2017-10-11T23:52:17.198Z,4.93
2017-10-11T23:54:44.658Z,5.30
2017-10-11T23:57:12.123Z,5.10
2017-10-11T23:59:39.585Z,5.07
